Time;durP1;ratioP1;P1;durP2;ratioP2;P2;SDS_P1;SDS_P2;PMS_P1;PMS_P2;Temp;Humidity;BMP_temperature;BMP_pressure;BME280_temperature;BME280_humidity;BME280_pressure;Samples;Min_cycle;Max_cycle;Signal;HPM_P1;HPM_P2
2023/12/12 00:01:22;;;;;;;;;;;14.00;99.90;;;;;;5075438;28;20061;-81
2023/12/12 00:03:48;;;;;;;;;;;14.00;99.90;;;;;;5092428;28;20314;-80
2023/12/12 00:06:13;;;;;;;;;;;14.00;99.90;;;;;;5073084;28;19915;-77
2023/12/12 00:08:39;;;;;;;;;;;14.00;99.90;;;;;;5072966;28;19917;-78
2023/12/12 00:11:05;;;;;;;;;;;14.00;99.90;;;;;;5072864;28;20011;-82
2023/12/12 00:13:30;;;;;;;;;;;13.90;99.90;;;;;;5072878;28;19912;-81
2023/12/12 00:15:56;;;;;;;;;;;14.00;99.90;;;;;;5080997;28;19919;-81
2023/12/12 00:18:21;;;;;;;;;;;13.90;99.90;;;;;;5087209;28;19961;-78
2023/12/12 00:20:47;;;;;;;;;;;13.90;99.90;;;;;;5096841;28;19974;-77
2023/12/12 00:23:12;;;;;;;;;;;13.90;99.90;;;;;;5112062;28;19908;-77
2023/12/12 00:25:38;;;;;;;;;;;13.80;99.90;;;;;;5096838;28;19948;-79
2023/12/12 00:28:03;;;;;;;;;;;13.80;99.90;;;;;;5087298;28;19966;-80
2023/12/12 00:30:29;;;;;;;;;;;13.80;99.90;;;;;;5096771;28;19912;-78
2023/12/12 00:32:55;;;;;;;;;;;13.90;99.90;;;;;;5076864;28;19912;-76
2023/12/12 00:35:20;;;;;;;;;;;13.80;99.90;;;;;;5058823;28;19908;-76
2023/12/12 00:37:46;;;;;;;;;;;13.90;99.90;;;;;;5076493;28;19935;-77
2023/12/12 00:40:11;;;;;;;;;;;13.90;99.90;;;;;;5092117;28;19916;-79
2023/12/12 00:42:37;;;;;;;;;;;13.90;99.90;;;;;;5076365;28;19913;-80
2023/12/12 00:45:02;;;;;;;;;;;13.90;99.90;;;;;;5076281;28;20346;-76
2023/12/12 00:47:30;;;;;;;;;;;13.90;99.90;;;;;;5091764;28;19995;-76
2023/12/12 00:49:55;;;;;;;;;;;13.90;99.90;;;;;;5076329;28;19908;-76
2023/12/12 00:52:21;;;;;;;;;;;13.90;99.90;;;;;;5076040;28;19958;-81
2023/12/12 00:54:46;;;;;;;;;;;13.90;99.90;;;;;;5075834;28;19908;-79
2023/12/12 00:57:12;;;;;;;;;;;13.90;99.90;;;;;;5092103;28;19909;-76
2023/12/12 00:59:37;;;;;;;;;;;13.80;99.90;;;;;;5095978;28;20363;-76
2023/12/12 01:02:03;;;;;;;;;;;13.80;99.90;;;;;;5095445;28;19908;-80
2023/12/12 01:04:32;;;;;;;;;;;13.70;99.90;;;;;;5089102;28;20012;-76
2023/12/12 01:06:57;;;;;;;;;;;13.70;99.90;;;;;;5076079;28;19919;-80
2023/12/12 01:09:23;;;;;;;;;;;13.70;99.90;;;;;;5075605;28;20287;-76
2023/12/12 01:11:48;;;;;;;;;;;13.70;99.90;;;;;;5074349;28;19927;-80
2023/12/12 01:14:14;;;;;;;;;;;13.60;99.90;;;;;;5075926;28;19978;-76
2023/12/12 01:16:39;;;;;;;;;;;13.70;99.90;;;;;;5082504;28;20340;-77
2023/12/12 01:19:05;;;;;;;;;;;13.70;99.90;;;;;;5093485;28;19922;-80
2023/12/12 01:21:30;;;;;;;;;;;13.60;99.90;;;;;;5111440;28;19908;-78
2023/12/12 01:23:56;;;;;;;;;;;13.60;99.90;;;;;;5095850;28;19908;-76
2023/12/12 01:26:22;;;;;;;;;;;13.70;99.90;;;;;;5094747;28;20011;-76
2023/12/12 01:28:48;;;;;;;;;;;13.60;99.90;;;;;;5086659;28;19938;-78
2023/12/12 01:31:14;;;;;;;;;;;13.60;99.90;;;;;;5075459;28;19979;-77
2023/12/12 01:33:39;;;;;;;;;;;13.60;99.90;;;;;;5075169;28;19914;-81
2023/12/12 01:36:05;;;;;;;;;;;13.70;99.90;;;;;;5075405;28;19919;-77
2023/12/12 01:38:31;;;;;;;;;;;13.70;99.90;;;;;;5075341;28;20351;-77
2023/12/12 01:40:57;;;;;;;;;;;13.70;99.90;;;;;;5075108;28;19908;-77
2023/12/12 01:43:27;;;;;;;;;;;13.80;99.90;;;;;;5057273;28;19962;-77
2023/12/12 01:45:54;;;;;;;;;;;13.80;99.90;;;;;;5075055;28;19908;-80
2023/12/12 01:48:20;;;;;;;;;;;13.80;99.90;;;;;;5075391;28;19909;-80
2023/12/12 01:50:46;;;;;;;;;;;13.90;99.90;;;;;;5075095;28;20275;-81
2023/12/12 01:53:13;;;;;;;;;;;14.00;99.90;;;;;;5075310;28;19972;-75
2023/12/12 01:55:38;;;;;;;;;;;14.00;99.90;;;;;;5078072;28;19918;-77
2023/12/12 01:58:04;;;;;;;;;;;14.00;99.90;;;;;;5095165;28;19912;-81
2023/12/12 02:00:30;;;;;;;;;;;14.00;99.90;;;;;;5094896;28;19919;-77
2023/12/12 02:02:55;;;;;;;;;;;14.00;99.90;;;;;;5094889;28;19987;-76
2023/12/12 02:05:22;;;;;;;;;;;14.10;99.90;;;;;;5080774;28;20356;-77
2023/12/12 02:07:48;;;;;;;;;;;14.00;99.90;;;;;;5074941;28;20333;-77
2023/12/12 02:10:14;;;;;;;;;;;14.10;99.90;;;;;;5074514;28;19908;-80
2023/12/12 02:12:39;;;;;;;;;;;14.10;99.90;;;;;;5074279;28;19974;-81
2023/12/12 02:15:05;;;;;;;;;;;14.10;99.90;;;;;;5076263;28;20160;-77
2023/12/12 02:17:31;;;;;;;;;;;14.10;99.90;;;;;;5087787;28;19908;-80
2023/12/12 02:19:57;;;;;;;;;;;14.10;99.90;;;;;;5074563;28;19960;-79
2023/12/12 02:22:22;;;;;;;;;;;14.10;99.90;;;;;;5074309;28;19991;-82
2023/12/12 02:24:48;;;;;;;;;;;14.20;99.90;;;;;;5074494;28;19920;-81
2023/12/12 02:27:14;;;;;;;;;;;14.20;99.90;;;;;;5077120;28;19912;-82
2023/12/12 02:29:39;;;;;;;;;;;14.20;99.90;;;;;;5083239;28;20275;-80
2023/12/12 02:32:05;;;;;;;;;;;14.20;99.90;;;;;;5074175;28;20057;-79
2023/12/12 02:34:30;;;;;;;;;;;14.20;99.90;;;;;;5074157;28;19943;-78
2023/12/12 02:36:56;;;;;;;;;;;14.20;99.90;;;;;;5074269;28;19908;-82
2023/12/12 02:39:21;;;;;;;;;;;14.20;99.90;;;;;;5073939;28;19916;-82
2023/12/12 02:41:47;;;;;;;;;;;14.10;99.90;;;;;;5073108;28;19912;-79
2023/12/12 02:44:12;;;;;;;;;;;14.10;99.90;;;;;;5074096;28;19909;-78
2023/12/12 02:46:39;;;;;;;;;;;14.10;99.90;;;;;;5073827;28;19938;-78
2023/12/12 02:49:05;;;;;;;;;;;14.10;99.90;;;;;;5074152;28;19916;-82
2023/12/12 02:51:31;;;;;;;;;;;14.10;99.90;;;;;;5073907;28;19991;-83
2023/12/12 02:53:56;;;;;;;;;;;14.10;99.90;;;;;;5073844;28;19940;-78
2023/12/12 02:56:22;;;;;;;;;;;14.00;99.90;;;;;;5082844;28;20013;-78
2023/12/12 02:58:47;;;;;;;;;;;13.90;99.90;;;;;;5093981;28;19926;-78
2023/12/12 03:01:14;;;;;;;;;;;13.80;99.90;;;;;;5094328;28;19973;-77
2023/12/12 03:03:39;;;;;;;;;;;13.50;99.90;;;;;;5093994;28;20006;-83
2023/12/12 03:06:06;;;;;;;;;;;13.40;99.90;;;;;;5072928;28;20342;-82
2023/12/12 03:08:31;;;;;;;;;;;13.30;99.90;;;;;;5073527;28;19908;-78
2023/12/12 03:10:57;;;;;;;;;;;13.20;99.90;;;;;;5052094;28;19923;-78
2023/12/12 03:13:22;;;;;;;;;;;13.30;99.90;;;;;;5067204;28;19912;-77
2023/12/12 03:15:48;;;;;;;;;;;13.40;99.90;;;;;;5078411;28;19916;-81
2023/12/12 03:18:13;;;;;;;;;;;13.50;99.90;;;;;;5073328;28;19912;-81
2023/12/12 03:20:39;;;;;;;;;;;13.60;99.90;;;;;;5073358;28;19912;-77
2023/12/12 03:23:04;;;;;;;;;;;13.60;99.90;;;;;;5073511;28;20341;-78
2023/12/12 03:25:30;;;;;;;;;;;13.60;99.90;;;;;;5073682;28;19909;-77
2023/12/12 03:27:55;;;;;;;;;;;13.50;99.90;;;;;;5079742;28;19912;-81
2023/12/12 03:30:21;;;;;;;;;;;13.50;99.90;;;;;;5079673;28;19909;-80
2023/12/12 03:32:46;;;;;;;;;;;13.60;99.90;;;;;;5073284;28;19962;-79
2023/12/12 03:35:12;;;;;;;;;;;13.60;99.90;;;;;;5073430;28;19915;-81
2023/12/12 03:37:37;;;;;;;;;;;13.70;99.90;;;;;;5073101;28;19922;-81
2023/12/12 03:40:03;;;;;;;;;;;13.70;99.90;;;;;;5073391;28;19996;-79
2023/12/12 03:42:29;;;;;;;;;;;13.70;99.90;;;;;;5055099;28;20027;-78
2023/12/12 03:44:54;;;;;;;;;;;13.70;99.90;;;;;;5073091;28;19962;-81
2023/12/12 03:47:20;;;;;;;;;;;13.70;99.90;;;;;;5073203;28;19962;-81
2023/12/12 03:49:45;;;;;;;;;;;13.70;99.90;;;;;;5073324;28;20275;-78
2023/12/12 03:52:11;;;;;;;;;;;13.80;99.90;;;;;;5073484;28;20371;-81
2023/12/12 03:54:36;;;;;;;;;;;13.80;99.90;;;;;;5077158;28;20386;-82
2023/12/12 03:57:03;;;;;;;;;;;13.80;99.90;;;;;;5077219;28;19908;-79
2023/12/12 03:59:28;;;;;;;;;;;13.90;99.90;;;;;;5076960;28;19916;-79
2023/12/12 04:01:54;;;;;;;;;;;13.80;99.90;;;;;;5077175;28;19915;-83
2023/12/12 04:04:19;;;;;;;;;;;13.80;99.90;;;;;;5076333;28;20264;-79
2023/12/12 04:06:48;;;;;;;;;;;13.80;99.90;;;;;;5077471;28;19908;-83
2023/12/12 04:09:13;;;;;;;;;;;13.80;99.90;;;;;;5077055;28;19908;-82
2023/12/12 04:11:39;;;;;;;;;;;13.80;99.90;;;;;;5076598;28;19966;-78
2023/12/12 04:14:04;;;;;;;;;;;13.90;99.90;;;;;;5076619;28;19920;-77
2023/12/12 04:16:30;;;;;;;;;;;13.80;99.90;;;;;;5085871;28;19912;-78
2023/12/12 04:18:55;;;;;;;;;;;13.80;99.90;;;;;;5080779;28;19912;-79
2023/12/12 04:21:21;;;;;;;;;;;13.80;99.90;;;;;;5076780;28;19915;-84
2023/12/12 04:23:46;;;;;;;;;;;13.80;99.90;;;;;;5077197;28;19908;-83
2023/12/12 04:26:12;;;;;;;;;;;13.70;99.90;;;;;;5092446;28;20448;-80
2023/12/12 04:28:38;;;;;;;;;;;13.70;99.90;;;;;;5090062;28;19923;-79
2023/12/12 04:31:04;;;;;;;;;;;13.70;99.90;;;;;;5059038;28;20272;-85
2023/12/12 04:33:29;;;;;;;;;;;13.70;99.90;;;;;;5076167;28;19908;-86
2023/12/12 04:35:55;;;;;;;;;;;13.60;99.90;;;;;;5076827;28;19915;-86
2023/12/12 04:38:20;;;;;;;;;;;13.50;99.90;;;;;;5058337;28;19920;-80
2023/12/12 04:40:46;;;;;;;;;;;13.50;99.90;;;;;;5076438;28;19916;-79
2023/12/12 04:43:11;;;;;;;;;;;13.50;99.90;;;;;;5076524;28;19909;-79
2023/12/12 04:45:37;;;;;;;;;;;13.50;99.90;;;;;;5076082;28;19952;-85
2023/12/12 04:48:03;;;;;;;;;;;13.50;99.90;;;;;;5076147;28;19934;-85
2023/12/12 04:50:28;;;;;;;;;;;13.50;99.90;;;;;;5076312;28;20362;-79
2023/12/12 04:52:54;;;;;;;;;;;13.50;99.90;;;;;;5076472;28;19995;-83
2023/12/12 04:55:19;;;;;;;;;;;13.50;99.90;;;;;;5091802;28;19909;-84
2023/12/12 04:57:45;;;;;;;;;;;13.50;99.90;;;;;;5076150;28;19916;-78
2023/12/12 05:00:13;;;;;;;;;;;13.50;99.90;;;;;;5076545;28;19912;-78
2023/12/12 05:02:40;;;;;;;;;;;13.40;99.90;;;;;;5076680;28;19966;-84
2023/12/12 05:05:05;;;;;;;;;;;13.40;99.90;;;;;;5074769;28;19913;-78
2023/12/12 05:07:31;;;;;;;;;;;13.40;99.90;;;;;;5076243;28;19916;-79
2023/12/12 05:09:56;;;;;;;;;;;13.40;99.90;;;;;;5075788;28;19908;-83
2023/12/12 05:12:22;;;;;;;;;;;13.40;99.90;;;;;;5075649;28;19925;-84
2023/12/12 05:14:47;;;;;;;;;;;13.40;99.90;;;;;;5076594;28;19924;-78
2023/12/12 05:17:13;;;;;;;;;;;13.40;99.90;;;;;;5081335;28;19916;-84
2023/12/12 05:19:38;;;;;;;;;;;13.40;99.90;;;;;;5091240;28;19977;-78
2023/12/12 05:22:04;;;;;;;;;;;13.50;99.90;;;;;;5075886;28;19908;-78
2023/12/12 05:24:29;;;;;;;;;;;13.50;99.90;;;;;;5075448;28;19908;-84
2023/12/12 05:26:55;;;;;;;;;;;13.50;99.90;;;;;;5079553;28;19912;-84
2023/12/12 05:29:20;;;;;;;;;;;13.50;99.90;;;;;;5094846;28;20347;-84
2023/12/12 05:31:46;;;;;;;;;;;13.50;99.90;;;;;;5095944;28;19954;-78
2023/12/12 05:34:11;;;;;;;;;;;13.50;99.90;;;;;;5095770;28;19915;-78
2023/12/12 05:36:37;;;;;;;;;;;13.50;99.90;;;;;;5076646;28;20287;-78
2023/12/12 05:39:03;;;;;;;;;;;13.50;99.90;;;;;;5075236;28;19912;-83
2023/12/12 05:41:29;;;;;;;;;;;13.60;99.90;;;;;;5075600;28;19947;-84
2023/12/12 05:43:54;;;;;;;;;;;13.60;99.90;;;;;;5085564;28;20313;-78
2023/12/12 05:46:20;;;;;;;;;;;13.60;99.90;;;;;;5095238;28;19957;-78
2023/12/12 05:48:45;;;;;;;;;;;13.50;99.90;;;;;;5095386;28;19908;-78
2023/12/12 05:51:11;;;;;;;;;;;13.50;99.90;;;;;;5096017;28;20339;-84
2023/12/12 05:53:36;;;;;;;;;;;13.50;99.90;;;;;;5095127;28;19912;-85
2023/12/12 05:56:02;;;;;;;;;;;13.50;99.90;;;;;;5095253;28;19915;-78
2023/12/12 05:58:28;;;;;;;;;;;13.50;99.90;;;;;;5095360;28;20307;-78
2023/12/12 06:00:54;;;;;;;;;;;13.50;99.90;;;;;;5109044;28;19912;-84
2023/12/12 06:03:19;;;;;;;;;;;13.40;99.90;;;;;;5075318;28;20382;-78
2023/12/12 06:05:45;;;;;;;;;;;13.50;99.90;;;;;;5074411;28;19908;-84
2023/12/12 06:08:11;;;;;;;;;;;13.40;99.90;;;;;;5074700;28;19971;-78
2023/12/12 06:10:37;;;;;;;;;;;13.40;99.90;;;;;;5066707;28;20383;-78
2023/12/12 06:13:03;;;;;;;;;;;13.40;99.90;;;;;;5095071;28;19939;-77
2023/12/12 06:15:28;;;;;;;;;;;13.30;99.90;;;;;;5105229;28;20379;-82
2023/12/12 06:17:54;;;;;;;;;;;13.30;99.90;;;;;;5078381;28;19913;-84
2023/12/12 06:20:21;;;;;;;;;;;13.30;99.90;;;;;;5073938;28;20637;-85
2023/12/12 06:22:47;;;;;;;;;;;13.30;99.90;;;;;;5078076;28;19913;-77
2023/12/12 06:25:12;;;;;;;;;;;13.30;99.90;;;;;;5085376;28;19908;-77
2023/12/12 06:27:38;;;;;;;;;;;13.30;99.90;;;;;;5081509;28;19916;-83
2023/12/12 06:30:04;;;;;;;;;;;13.30;99.90;;;;;;5073959;28;19908;-84
2023/12/12 06:32:29;;;;;;;;;;;13.30;99.90;;;;;;5055746;28;19908;-84
2023/12/12 06:34:55;;;;;;;;;;;13.30;99.90;;;;;;5073868;28;20302;-77
2023/12/12 06:37:20;;;;;;;;;;;13.40;99.90;;;;;;5058878;28;19940;-78
2023/12/12 06:39:46;;;;;;;;;;;13.30;99.90;;;;;;5080033;28;19916;-79
2023/12/12 06:42:11;;;;;;;;;;;13.30;99.90;;;;;;5074306;28;19920;-77
2023/12/12 06:44:37;;;;;;;;;;;13.40;99.90;;;;;;5080081;28;20391;-82
2023/12/12 06:47:02;;;;;;;;;;;13.40;99.90;;;;;;5073502;28;19909;-83
2023/12/12 06:49:28;;;;;;;;;;;13.40;99.90;;;;;;5069605;28;20754;-77
2023/12/12 06:51:53;;;;;;;;;;;13.40;99.90;;;;;;5092169;28;19919;-82
2023/12/12 06:54:19;;;;;;;;;;;13.40;99.90;;;;;;5087986;28;20357;-77
2023/12/12 06:56:44;;;;;;;;;;;13.30;99.90;;;;;;5093715;28;19940;-82
2023/12/12 06:59:10;;;;;;;;;;;13.40;99.90;;;;;;5073658;28;19916;-83
2023/12/12 07:01:35;;;;;;;;;;;13.30;99.90;;;;;;5085944;28;19916;-83
2023/12/12 07:04:01;;;;;;;;;;;13.40;99.90;;;;;;5083229;28;20363;-77
2023/12/12 07:06:26;;;;;;;;;;;13.40;99.90;;;;;;5085161;28;19915;-77
2023/12/12 07:08:52;;;;;;;;;;;13.40;99.90;;;;;;5076780;28;19913;-82
2023/12/12 07:11:18;;;;;;;;;;;13.50;99.90;;;;;;5072848;28;20027;-77
2023/12/12 07:13:44;;;;;;;;;;;13.50;99.90;;;;;;5072770;28;20264;-81
2023/12/12 07:16:12;;;;;;;;;;;13.50;99.90;;;;;;5072605;28;19915;-77
2023/12/12 07:18:38;;;;;;;;;;;13.40;99.90;;;;;;5072840;28;19920;-79
2023/12/12 07:21:04;;;;;;;;;;;13.40;99.90;;;;;;5072938;28;19909;-77
2023/12/12 07:23:30;;;;;;;;;;;13.40;99.90;;;;;;5071854;28;19958;-81
2023/12/12 07:25:56;;;;;;;;;;;13.40;99.90;;;;;;5072771;28;20318;-77
2023/12/12 07:28:22;;;;;;;;;;;13.40;99.90;;;;;;5073594;28;20421;-81
2023/12/12 07:30:48;;;;;;;;;;;13.40;99.90;;;;;;5089801;28;19908;-77
2023/12/12 07:33:13;;;;;;;;;;;13.40;99.90;;;;;;5083312;28;20110;-77
2023/12/12 07:35:39;;;;;;;;;;;13.40;99.90;;;;;;5072465;28;19916;-80
2023/12/12 07:38:04;;;;;;;;;;;13.40;99.90;;;;;;5072797;28;19927;-81
2023/12/12 07:40:32;;;;;;;;;;;13.40;99.90;;;;;;5071522;28;19912;-80
2023/12/12 07:42:58;;;;;;;;;;;13.40;99.90;;;;;;5072638;28;19927;-78
2023/12/12 07:45:24;;;;;;;;;;;13.40;99.90;;;;;;5081002;28;19909;-80
2023/12/12 07:47:49;;;;;;;;;;;13.40;99.90;;;;;;5071094;28;19913;-80
2023/12/12 07:50:17;;;;;;;;;;;13.40;99.90;;;;;;5071755;28;20007;-82
2023/12/12 07:52:47;;;;;;;;;;;13.40;99.90;;;;;;5069249;28;19924;-83
2023/12/12 07:55:13;;;;;;;;;;;13.40;99.90;;;;;;5068723;28;19909;-78
2023/12/12 07:57:38;;;;;;;;;;;13.40;99.90;;;;;;5070818;28;19923;-77
2023/12/12 08:00:07;;;;;;;;;;;13.50;99.90;;;;;;5070925;28;20310;-77
2023/12/12 08:02:33;;;;;;;;;;;13.50;99.90;;;;;;5070957;28;20310;-77
2023/12/12 08:04:59;;;;;;;;;;;13.50;99.90;;;;;;5070681;28;19924;-81
2023/12/12 08:07:24;;;;;;;;;;;13.60;99.90;;;;;;5070762;28;19912;-77
2023/12/12 08:09:50;;;;;;;;;;;13.50;99.90;;;;;;5070985;28;19982;-77
2023/12/12 08:12:16;;;;;;;;;;;13.50;99.90;;;;;;5067148;28;20448;-77
2023/12/12 08:14:42;;;;;;;;;;;13.50;99.90;;;;;;5072670;28;19913;-80
2023/12/12 08:17:07;;;;;;;;;;;13.50;99.90;;;;;;5081526;28;19935;-77
2023/12/12 08:19:33;;;;;;;;;;;13.60;99.90;;;;;;5066893;28;19924;-78
2023/12/12 08:21:58;;;;;;;;;;;13.50;99.90;;;;;;5068697;28;19966;-77
2023/12/12 08:24:24;;;;;;;;;;;13.50;99.90;;;;;;5070112;28;19908;-77
2023/12/12 08:26:49;;;;;;;;;;;13.60;99.90;;;;;;5088440;28;19912;-81
2023/12/12 08:29:15;;;;;;;;;;;13.60;99.90;;;;;;5075811;28;19916;-80
2023/12/12 08:31:41;;;;;;;;;;;13.60;99.90;;;;;;5070913;28;20387;-77
2023/12/12 08:34:07;;;;;;;;;;;13.60;99.90;;;;;;5070121;28;20019;-77
2023/12/12 08:36:33;;;;;;;;;;;13.60;99.90;;;;;;5070104;28;19913;-77
2023/12/12 08:38:59;;;;;;;;;;;13.60;99.90;;;;;;5069919;28;19973;-77
2023/12/12 08:41:28;;;;;;;;;;;13.50;99.90;;;;;;5059149;28;20393;-76
2023/12/12 08:43:59;;;;;;;;;;;13.50;99.90;;;;;;5073332;28;19978;-80
2023/12/12 08:46:28;;;;;;;;;;;13.60;99.90;;;;;;5074916;28;20327;-77
2023/12/12 08:48:54;;;;;;;;;;;13.60;99.90;;;;;;5092949;28;19950;-76
2023/12/12 08:51:21;;;;;;;;;;;13.60;99.90;;;;;;5061151;28;19917;-76
2023/12/12 08:53:46;;;;;;;;;;;13.60;99.90;;;;;;5073543;28;20003;-80
2023/12/12 08:56:14;;;;;;;;;;;13.60;99.90;;;;;;5074034;28;20027;-81
2023/12/12 08:58:40;;;;;;;;;;;13.60;99.90;;;;;;5073748;28;19968;-79
2023/12/12 09:01:05;;;;;;;;;;;13.60;99.90;;;;;;5073350;28;19917;-77
2023/12/12 09:03:31;;;;;;;;;;;13.70;99.90;;;;;;5053421;28;20040;-81
2023/12/12 09:05:56;;;;;;;;;;;13.70;99.90;;;;;;5076179;28;19949;-77
2023/12/12 09:08:22;;;;;;;;;;;13.70;99.90;;;;;;5074354;28;20335;-77
2023/12/12 09:10:47;;;;;;;;;;;13.70;99.90;;;;;;5051780;28;19964;-77
2023/12/12 09:13:13;;;;;;;;;;;13.70;99.90;;;;;;5058820;28;19916;-77
2023/12/12 09:15:38;;;;;;;;;;;13.70;99.90;;;;;;5053989;28;20294;-81
2023/12/12 09:18:04;;;;;;;;;;;13.70;99.90;;;;;;5054912;28;19925;-80
2023/12/12 09:20:29;;;;;;;;;;;13.70;99.90;;;;;;5053537;28;19916;-82
2023/12/12 09:22:55;;;;;;;;;;;13.80;99.90;;;;;;5070024;28;19921;-80
2023/12/12 09:25:20;;;;;;;;;;;13.80;99.90;;;;;;5050748;28;19909;-77
2023/12/12 09:27:46;;;;;;;;;;;13.80;99.90;;;;;;5058851;28;19940;-76
2023/12/12 09:30:11;;;;;;;;;;;13.90;99.90;;;;;;5069570;28;19913;-81
2023/12/12 09:32:37;;;;;;;;;;;13.90;99.90;;;;;;5052482;28;19960;-80
2023/12/12 09:35:03;;;;;;;;;;;13.90;99.90;;;;;;5052916;28;19959;-80
2023/12/12 09:37:29;;;;;;;;;;;13.90;99.90;;;;;;5052651;28;19912;-77
2023/12/12 09:39:55;;;;;;;;;;;14.00;99.90;;;;;;5052924;28;19979;-77
2023/12/12 09:42:23;;;;;;;;;;;14.00;99.90;;;;;;5065884;28;19912;-77
2023/12/12 09:44:54;;;;;;;;;;;14.00;99.90;;;;;;5064521;28;19975;-80
2023/12/12 09:47:20;;;;;;;;;;;14.00;99.90;;;;;;5051731;28;19924;-81
2023/12/12 09:49:47;;;;;;;;;;;14.00;99.90;;;;;;5056508;28;19912;-77
2023/12/12 09:52:15;;;;;;;;;;;14.00;99.90;;;;;;5053440;28;19913;-77
2023/12/12 09:54:41;;;;;;;;;;;14.00;99.90;;;;;;5053126;28;19913;-77
2023/12/12 09:57:07;;;;;;;;;;;14.10;99.90;;;;;;5040231;28;19916;-76
2023/12/12 09:59:33;;;;;;;;;;;14.00;99.90;;;;;;5056366;28;19976;-80
2023/12/12 10:01:59;;;;;;;;;;;14.00;99.90;;;;;;5060225;28;20358;-76
2023/12/12 10:04:25;;;;;;;;;;;14.00;99.90;;;;;;5053123;28;19913;-77
2023/12/12 10:06:53;;;;;;;;;;;14.00;99.90;;;;;;5055027;28;19916;-77
2023/12/12 10:09:20;;;;;;;;;;;14.10;99.90;;;;;;5051476;28;20410;-82
2023/12/12 10:11:46;;;;;;;;;;;14.10;99.90;;;;;;5055135;28;19931;-82
2023/12/12 10:14:12;;;;;;;;;;;14.10;99.90;;;;;;5055055;28;19924;-78
2023/12/12 10:16:37;;;;;;;;;;;14.00;99.90;;;;;;5052730;28;19924;-77
2023/12/12 10:19:03;;;;;;;;;;;14.00;99.90;;;;;;5052260;28;19917;-76
2023/12/12 10:21:28;;;;;;;;;;;14.00;99.90;;;;;;5052022;28;19913;-77
2023/12/12 10:23:54;;;;;;;;;;;14.00;99.90;;;;;;5051221;28;20696;-81
2023/12/12 10:26:31;;;;;;;;;;;14.00;99.90;;;;;;5052663;28;19920;-77
2023/12/12 10:28:57;;;;;;;;;;;14.00;99.90;;;;;;5059799;28;19920;-77
2023/12/12 10:31:25;;;;;;;;;;;14.00;99.90;;;;;;5054533;28;20056;-81
2023/12/12 10:33:51;;;;;;;;;;;14.00;99.90;;;;;;5052086;28;19913;-78
2023/12/12 10:36:16;;;;;;;;;;;14.00;99.90;;;;;;5052532;28;19984;-77
2023/12/12 10:38:42;;;;;;;;;;;14.00;99.90;;;;;;5034930;28;19927;-82
2023/12/12 10:41:15;;;;;;;;;;;14.10;99.90;;;;;;5052972;28;20063;-83
2023/12/12 10:43:41;;;;;;;;;;;14.10;99.90;;;;;;5051305;28;20015;-77
2023/12/12 10:46:09;;;;;;;;;;;14.10;99.90;;;;;;5051528;28;19913;-76
2023/12/12 10:48:36;;;;;;;;;;;14.10;99.90;;;;;;5052573;28;19920;-81
2023/12/12 10:51:02;;;;;;;;;;;14.10;99.90;;;;;;5052243;28;20003;-77
2023/12/12 10:53:29;;;;;;;;;;;14.10;99.90;;;;;;5051615;28;19920;-81
2023/12/12 10:55:56;;;;;;;;;;;14.10;99.90;;;;;;5051742;28;19916;-82
2023/12/12 10:58:23;;;;;;;;;;;14.10;99.90;;;;;;5051414;28;19960;-77
2023/12/12 11:00:48;;;;;;;;;;;14.20;99.90;;;;;;5054343;28;19917;-79
2023/12/12 11:03:15;;;;;;;;;;;14.10;99.90;;;;;;5053863;28;20325;-80
2023/12/12 11:05:41;;;;;;;;;;;14.20;99.90;;;;;;5061672;28;19912;-81
2023/12/12 11:08:07;;;;;;;;;;;14.20;99.90;;;;;;5051925;28;19920;-77
2023/12/12 11:10:33;;;;;;;;;;;14.10;99.90;;;;;;5053716;28;19979;-77
2023/12/12 11:13:01;;;;;;;;;;;14.10;99.90;;;;;;5072144;28;19924;-77
2023/12/12 11:15:27;;;;;;;;;;;14.10;99.90;;;;;;5054106;28;20256;-76
2023/12/12 11:17:53;;;;;;;;;;;14.00;99.90;;;;;;5074894;28;19908;-81
2023/12/12 11:20:19;;;;;;;;;;;14.00;99.90;;;;;;5073553;28;19921;-77
2023/12/12 11:22:45;;;;;;;;;;;14.00;99.90;;;;;;5070685;28;20295;-76
2023/12/12 11:25:17;;;;;;;;;;;14.00;99.90;;;;;;5070072;28;19923;-77
2023/12/12 11:27:50;;;;;;;;;;;14.00;99.90;;;;;;5073765;28;19983;-77
2023/12/12 11:30:16;;;;;;;;;;;14.00;99.90;;;;;;5066385;28;20288;-82
2023/12/12 11:32:43;;;;;;;;;;;14.00;99.90;;;;;;5071892;28;20008;-77
2023/12/12 11:35:29;;;;;;;;;;;14.10;99.90;;;;;;5068310;28;19928;-77
2023/12/12 11:37:56;;;;;;;;;;;14.10;99.90;;;;;;5075581;28;19916;-81
2023/12/12 11:40:23;;;;;;;;;;;14.00;99.90;;;;;;5077107;28;19916;-77
2023/12/12 11:42:51;;;;;;;;;;;14.00;99.90;;;;;;5072259;28;19962;-77
2023/12/12 11:45:30;;;;;;;;;;;14.10;99.90;;;;;;5070123;28;19912;-81
2023/12/12 11:47:57;;;;;;;;;;;14.10;99.90;;;;;;5082176;28;20847;-77
2023/12/12 11:50:26;;;;;;;;;;;14.10;99.90;;;;;;5077467;28;20371;-78
2023/12/12 11:52:51;;;;;;;;;;;14.20;99.90;;;;;;5080157;28;19908;-79
2023/12/12 11:55:18;;;;;;;;;;;14.20;99.90;;;;;;5071019;28;19916;-81
2023/12/12 11:57:47;;;;;;;;;;;14.30;99.90;;;;;;5061437;28;20287;-80
2023/12/12 12:00:13;;;;;;;;;;;14.40;99.90;;;;;;5052233;28;20275;-77
2023/12/12 12:02:40;;;;;;;;;;;14.40;99.90;;;;;;5069897;28;20063;-82
2023/12/12 12:05:06;;;;;;;;;;;14.50;99.90;;;;;;5072712;28;19959;-81
2023/12/12 12:07:32;;;;;;;;;;;14.50;99.90;;;;;;5063280;28;20390;-77
2023/12/12 12:09:58;;;;;;;;;;;14.50;99.90;;;;;;5070625;28;19924;-81
2023/12/12 12:12:23;;;;;;;;;;;14.50;99.90;;;;;;5057601;28;19925;-81
2023/12/12 12:14:49;;;;;;;;;;;14.50;99.90;;;;;;5061168;28;19936;-83
2023/12/12 12:17:14;;;;;;;;;;;14.50;99.90;;;;;;5075617;28;20384;-77
2023/12/12 12:19:40;;;;;;;;;;;14.60;99.90;;;;;;5062491;28;19917;-77
2023/12/12 12:22:10;;;;;;;;;;;14.60;99.90;;;;;;5062087;28;19912;-82
2023/12/12 12:24:43;;;;;;;;;;;14.50;99.90;;;;;;5061903;28;19917;-83
2023/12/12 12:27:08;;;;;;;;;;;14.50;99.90;;;;;;5067117;28;19946;-76
2023/12/12 12:29:34;;;;;;;;;;;14.40;99.90;;;;;;5060357;28;19932;-76
2023/12/12 12:32:12;;;;;;;;;;;14.40;99.90;;;;;;5056748;28;19959;-76
2023/12/12 12:34:38;;;;;;;;;;;14.30;99.90;;;;;;5063050;28;19916;-76
2023/12/12 12:37:04;;;;;;;;;;;14.20;99.90;;;;;;5068955;28;19912;-81
2023/12/12 12:39:29;;;;;;;;;;;14.10;99.90;;;;;;5072913;28;20317;-75
2023/12/12 12:41:55;;;;;;;;;;;13.90;99.90;;;;;;5067087;28;19923;-76
2023/12/12 12:44:21;;;;;;;;;;;13.70;99.90;;;;;;5066950;28;19916;-79
2023/12/12 12:46:47;;;;;;;;;;;13.70;99.90;;;;;;5068080;28;19937;-80
2023/12/12 12:49:13;;;;;;;;;;;13.60;99.90;;;;;;5060894;28;19917;-82
2023/12/12 12:51:39;;;;;;;;;;;13.60;99.90;;;;;;5061453;28;20307;-82
2023/12/12 12:54:25;;;;;;;;;;;13.60;99.90;;;;;;5047876;28;19912;-83
2023/12/12 12:56:51;;;;;;;;;;;13.60;99.90;;;;;;5047272;28;19966;-79
2023/12/12 12:59:18;;;;;;;;;;;13.60;99.90;;;;;;5072152;28;19920;-80
2023/12/12 13:01:44;;;;;;;;;;;13.60;99.90;;;;;;5046999;28;20403;-82
2023/12/12 13:04:10;;;;;;;;;;;13.60;99.90;;;;;;5070845;28;19916;-83
2023/12/12 13:06:37;;;;;;;;;;;13.70;99.90;;;;;;5068339;28;19942;-78
2023/12/12 13:09:04;;;;;;;;;;;13.70;99.90;;;;;;5067194;28;20264;-78
2023/12/12 13:11:30;;;;;;;;;;;13.70;99.90;;;;;;5073552;28;19924;-78
2023/12/12 13:13:55;;;;;;;;;;;13.80;99.90;;;;;;5080522;28;19927;-83
2023/12/12 13:16:21;;;;;;;;;;;13.90;99.90;;;;;;5073774;28;19962;-84
2023/12/12 13:18:46;;;;;;;;;;;13.90;99.90;;;;;;5077357;28;19961;-76
2023/12/12 13:21:12;;;;;;;;;;;13.90;99.90;;;;;;5083648;28;20337;-77
2023/12/12 13:23:37;;;;;;;;;;;14.00;99.90;;;;;;5056310;28;20429;-79
2023/12/12 13:26:05;;;;;;;;;;;13.90;99.90;;;;;;5072031;28;19913;-83
2023/12/12 13:28:31;;;;;;;;;;;14.00;99.90;;;;;;5060098;28;20333;-87
2023/12/12 13:30:56;;;;;;;;;;;14.00;99.90;;;;;;5083688;28;19912;-84
2023/12/12 13:33:22;;;;;;;;;;;14.00;99.90;;;;;;5073782;28;19920;-76
2023/12/12 13:35:47;;;;;;;;;;;14.00;99.90;;;;;;5072159;28;19920;-78
2023/12/12 13:38:13;;;;;;;;;;;14.00;99.90;;;;;;5084549;28;20401;-76
2023/12/12 13:40:38;;;;;;;;;;;14.00;99.90;;;;;;5060567;28;19978;-89
2023/12/12 13:43:04;;;;;;;;;;;14.20;99.90;;;;;;5071643;28;19995;-86
2023/12/12 13:45:30;;;;;;;;;;;14.20;99.90;;;;;;5071670;28;19923;-77
2023/12/12 13:47:55;;;;;;;;;;;14.20;99.90;;;;;;5071942;28;19916;-84
2023/12/12 13:50:21;;;;;;;;;;;14.20;99.90;;;;;;5080833;28;19917;-77
2023/12/12 13:52:47;;;;;;;;;;;14.20;99.90;;;;;;5080746;28;20026;-86
2023/12/12 13:55:12;;;;;;;;;;;14.20;99.90;;;;;;5078195;28;20402;-84
2023/12/12 13:57:38;;;;;;;;;;;14.20;99.90;;;;;;5072247;28;19970;-77
2023/12/12 14:00:05;;;;;;;;;;;14.20;99.90;;;;;;5053734;28;19920;-82
2023/12/12 14:02:30;;;;;;;;;;;14.30;99.90;;;;;;5072423;28;19916;-76
2023/12/12 14:04:59;;;;;;;;;;;14.30;99.90;;;;;;5085885;28;19919;-82
2023/12/12 14:07:24;;;;;;;;;;;14.30;99.90;;;;;;5073007;28;19963;-82
2023/12/12 14:09:50;;;;;;;;;;;14.30;99.90;;;;;;5076727;28;19960;-82